Terminal Aerodrome Forecast
Issued by NWS

Home | Current Version | Previous Version | Text Only | Print | Product List | Glossary Off
Versions: 1 2 3 4 5 6 7 8 9 10 11 12 13 14

000
FTUS43 KOAX 231124
TAFCDR
TAF
KCDR 231124Z 2312/2412 28012KT P6SM SKC
     FM231400 33017G25KT P6SM FEW120
     FM232100 03013G20KT P6SM SCT120
     FM240100 06006KT P6SM SCT120=

USA.gov is the U.S. government's official web portal to all federal, state and local government web resources and services.